sensor_id;sensor_type;location;lat;lon;timestamp;P1;durP1;ratioP1;P2;durP2;ratioP2
54977;SDS011;40873;47.522;19.106;2023-03-29T00:00:28;4.40;;;1.23;;
54977;SDS011;40873;47.522;19.106;2023-03-29T00:03:13;2.08;;;1.00;;
54977;SDS011;40873;47.522;19.106;2023-03-29T00:05:41;1.40;;;0.80;;
54977;SDS011;40873;47.522;19.106;2023-03-29T00:08:10;2.10;;;0.75;;
54977;SDS011;40873;47.522;19.106;2023-03-29T00:10:40;2.45;;;1.02;;
54977;SDS011;40873;47.522;19.106;2023-03-29T00:13:07;2.08;;;0.90;;
54977;SDS011;40873;47.522;19.106;2023-03-29T00:15:34;1.85;;;0.85;;
54977;SDS011;40873;47.522;19.106;2023-03-29T00:18:01;2.70;;;1.40;;
54977;SDS011;40873;47.522;19.106;2023-03-29T00:20:28;3.25;;;0.88;;
54977;SDS011;40873;47.522;19.106;2023-03-29T00:22:55;3.33;;;0.73;;
54977;SDS011;40873;47.522;19.106;2023-03-29T00:25:22;4.03;;;1.23;;
54977;SDS011;40873;47.522;19.106;2023-03-29T00:27:49;3.45;;;1.20;;
54977;SDS011;40873;47.522;19.106;2023-03-29T00:30:16;2.00;;;0.90;;
54977;SDS011;40873;47.522;19.106;2023-03-29T00:32:43;4.03;;;1.23;;
54977;SDS011;40873;47.522;19.106;2023-03-29T00:35:11;6.72;;;1.52;;
54977;SDS011;40873;47.522;19.106;2023-03-29T00:37:38;2.85;;;1.35;;
54977;SDS011;40873;47.522;19.106;2023-03-29T00:40:07;5.18;;;1.58;;
54977;SDS011;40873;47.522;19.106;2023-03-29T00:42:37;3.85;;;1.45;;
54977;SDS011;40873;47.522;19.106;2023-03-29T00:45:17;2.72;;;1.02;;
54977;SDS011;40873;47.522;19.106;2023-03-29T00:47:52;5.97;;;1.55;;
54977;SDS011;40873;47.522;19.106;2023-03-29T00:50:34;3.33;;;1.23;;
54977;SDS011;40873;47.522;19.106;2023-03-29T01:01:00;4.28;;;1.65;;
54977;SDS011;40873;47.522;19.106;2023-03-29T01:03:35;3.90;;;1.02;;
54977;SDS011;40873;47.522;19.106;2023-03-29T01:06:13;2.92;;;1.00;;
54977;SDS011;40873;47.522;19.106;2023-03-29T01:08:48;3.70;;;1.52;;
54977;SDS011;40873;47.522;19.106;2023-03-29T01:11:38;2.70;;;1.10;;
54977;SDS011;40873;47.522;19.106;2023-03-29T01:14:17;5.32;;;1.60;;
54977;SDS011;40873;47.522;19.106;2023-03-29T01:16:53;2.50;;;1.30;;
54977;SDS011;40873;47.522;19.106;2023-03-29T01:19:20;3.05;;;1.42;;
54977;SDS011;40873;47.522;19.106;2023-03-29T01:21:54;4.15;;;2.10;;
54977;SDS011;40873;47.522;19.106;2023-03-29T01:25:00;3.25;;;1.40;;
54977;SDS011;40873;47.522;19.106;2023-03-29T01:28:00;3.30;;;1.60;;
54977;SDS011;40873;47.522;19.106;2023-03-29T01:30:48;2.58;;;1.33;;
54977;SDS011;40873;47.522;19.106;2023-03-29T01:33:26;4.38;;;1.45;;
54977;SDS011;40873;47.522;19.106;2023-03-29T01:36:05;4.80;;;1.50;;
54977;SDS011;40873;47.522;19.106;2023-03-29T01:41:18;2.47;;;1.10;;
54977;SDS011;40873;47.522;19.106;2023-03-29T01:46:25;2.53;;;1.77;;
54977;SDS011;40873;47.522;19.106;2023-03-29T01:49:52;4.93;;;1.17;;
54977;SDS011;40873;47.522;19.106;2023-03-29T01:52:03;3.72;;;1.42;;
54977;SDS011;40873;47.522;19.106;2023-03-29T01:54:40;2.97;;;1.00;;
54977;SDS011;40873;47.522;19.106;2023-03-29T01:57:12;2.10;;;1.30;;
54977;SDS011;40873;47.522;19.106;2023-03-29T01:59:41;2.67;;;1.40;;
54977;SDS011;40873;47.522;19.106;2023-03-29T02:02:10;4.57;;;1.48;;
54977;SDS011;40873;47.522;19.106;2023-03-29T02:04:42;4.00;;;1.55;;
54977;SDS011;40873;47.522;19.106;2023-03-29T02:07:16;2.42;;;1.23;;
54977;SDS011;40873;47.522;19.106;2023-03-29T02:09:47;8.60;;;1.40;;
54977;SDS011;40873;47.522;19.106;2023-03-29T02:12:18;1.92;;;1.20;;
54977;SDS011;40873;47.522;19.106;2023-03-29T02:14:46;2.35;;;1.50;;
54977;SDS011;40873;47.522;19.106;2023-03-29T02:17:17;3.22;;;1.35;;
54977;SDS011;40873;47.522;19.106;2023-03-29T02:19:46;2.47;;;1.33;;
54977;SDS011;40873;47.522;19.106;2023-03-29T02:22:23;2.45;;;1.48;;
54977;SDS011;40873;47.522;19.106;2023-03-29T02:24:54;4.93;;;1.60;;
54977;SDS011;40873;47.522;19.106;2023-03-29T02:27:25;6.82;;;1.88;;
54977;SDS011;40873;47.522;19.106;2023-03-29T02:29:54;4.90;;;1.35;;
54977;SDS011;40873;47.522;19.106;2023-03-29T02:35:08;4.43;;;1.30;;
54977;SDS011;40873;47.522;19.106;2023-03-29T02:37:43;5.07;;;1.47;;
54977;SDS011;40873;47.522;19.106;2023-03-29T02:40:15;3.95;;;1.58;;
54977;SDS011;40873;47.522;19.106;2023-03-29T02:42:43;2.00;;;1.08;;
54977;SDS011;40873;47.522;19.106;2023-03-29T02:45:12;5.72;;;1.52;;
54977;SDS011;40873;47.522;19.106;2023-03-29T02:47:44;3.55;;;1.38;;
54977;SDS011;40873;47.522;19.106;2023-03-29T02:50:16;2.70;;;1.33;;
54977;SDS011;40873;47.522;19.106;2023-03-29T02:52:45;3.55;;;1.15;;
54977;SDS011;40873;47.522;19.106;2023-03-29T02:55:20;2.83;;;1.63;;
54977;SDS011;40873;47.522;19.106;2023-03-29T02:57:49;6.78;;;2.13;;
54977;SDS011;40873;47.522;19.106;2023-03-29T03:00:17;7.22;;;1.85;;
54977;SDS011;40873;47.522;19.106;2023-03-29T03:02:46;3.30;;;1.80;;
54977;SDS011;40873;47.522;19.106;2023-03-29T03:05:13;4.10;;;1.60;;
54977;SDS011;40873;47.522;19.106;2023-03-29T03:07:40;5.82;;;1.80;;
54977;SDS011;40873;47.522;19.106;2023-03-29T03:10:08;4.63;;;2.45;;
54977;SDS011;40873;47.522;19.106;2023-03-29T03:12:35;3.22;;;1.88;;
54977;SDS011;40873;47.522;19.106;2023-03-29T03:15:03;4.88;;;1.40;;
54977;SDS011;40873;47.522;19.106;2023-03-29T03:17:31;2.95;;;1.83;;
54977;SDS011;40873;47.522;19.106;2023-03-29T03:19:59;5.35;;;1.60;;
54977;SDS011;40873;47.522;19.106;2023-03-29T03:22:26;4.13;;;1.92;;
54977;SDS011;40873;47.522;19.106;2023-03-29T03:24:53;4.97;;;2.00;;
54977;SDS011;40873;47.522;19.106;2023-03-29T03:27:20;5.43;;;1.70;;
54977;SDS011;40873;47.522;19.106;2023-03-29T03:29:47;5.05;;;2.05;;
54977;SDS011;40873;47.522;19.106;2023-03-29T03:32:14;3.17;;;1.67;;
54977;SDS011;40873;47.522;19.106;2023-03-29T03:34:41;3.85;;;1.55;;
54977;SDS011;40873;47.522;19.106;2023-03-29T03:37:09;5.10;;;2.00;;
54977;SDS011;40873;47.522;19.106;2023-03-29T03:39:37;5.28;;;1.88;;
54977;SDS011;40873;47.522;19.106;2023-03-29T03:42:04;2.63;;;1.35;;
54977;SDS011;40873;47.522;19.106;2023-03-29T03:44:34;4.72;;;2.15;;
54977;SDS011;40873;47.522;19.106;2023-03-29T03:47:01;5.25;;;2.75;;
54977;SDS011;40873;47.522;19.106;2023-03-29T03:49:28;5.82;;;2.35;;
54977;SDS011;40873;47.522;19.106;2023-03-29T03:51:55;4.50;;;2.50;;
54977;SDS011;40873;47.522;19.106;2023-03-29T03:54:25;3.03;;;1.88;;
54977;SDS011;40873;47.522;19.106;2023-03-29T03:56:52;4.18;;;1.85;;
54977;SDS011;40873;47.522;19.106;2023-03-29T03:59:19;3.50;;;1.92;;
54977;SDS011;40873;47.522;19.106;2023-03-29T04:01:47;5.60;;;2.28;;
54977;SDS011;40873;47.522;19.106;2023-03-29T04:04:14;3.00;;;1.80;;
54977;SDS011;40873;47.522;19.106;2023-03-29T04:06:42;4.00;;;2.25;;
54977;SDS011;40873;47.522;19.106;2023-03-29T04:09:09;3.50;;;2.00;;
54977;SDS011;40873;47.522;19.106;2023-03-29T04:11:36;6.53;;;2.55;;
54977;SDS011;40873;47.522;19.106;2023-03-29T04:14:04;8.35;;;1.83;;
54977;SDS011;40873;47.522;19.106;2023-03-29T04:16:30;3.65;;;1.67;;
54977;SDS011;40873;47.522;19.106;2023-03-29T04:18:58;9.18;;;3.20;;
54977;SDS011;40873;47.522;19.106;2023-03-29T04:21:24;3.25;;;1.67;;
54977;SDS011;40873;47.522;19.106;2023-03-29T04:23:51;7.28;;;2.35;;
54977;SDS011;40873;47.522;19.106;2023-03-29T04:26:18;4.80;;;2.13;;
54977;SDS011;40873;47.522;19.106;2023-03-29T04:28:45;4.25;;;1.80;;
54977;SDS011;40873;47.522;19.106;2023-03-29T04:31:13;3.55;;;2.17;;
54977;SDS011;40873;47.522;19.106;2023-03-29T04:33:40;4.25;;;1.98;;
54977;SDS011;40873;47.522;19.106;2023-03-29T04:36:07;2.67;;;1.92;;
54977;SDS011;40873;47.522;19.106;2023-03-29T04:38:35;7.53;;;2.42;;
54977;SDS011;40873;47.522;19.106;2023-03-29T04:41:02;4.20;;;2.17;;
54977;SDS011;40873;47.522;19.106;2023-03-29T04:43:30;7.05;;;2.47;;
54977;SDS011;40873;47.522;19.106;2023-03-29T04:45:57;4.43;;;2.03;;
54977;SDS011;40873;47.522;19.106;2023-03-29T04:48:25;4.13;;;1.95;;
54977;SDS011;40873;47.522;19.106;2023-03-29T04:50:52;2.83;;;1.83;;
54977;SDS011;40873;47.522;19.106;2023-03-29T04:53:20;6.07;;;2.95;;
54977;SDS011;40873;47.522;19.106;2023-03-29T04:55:47;4.63;;;2.33;;
54977;SDS011;40873;47.522;19.106;2023-03-29T04:58:14;5.95;;;2.42;;
54977;SDS011;40873;47.522;19.106;2023-03-29T05:00:41;5.68;;;2.20;;
54977;SDS011;40873;47.522;19.106;2023-03-29T05:03:09;6.05;;;2.67;;
54977;SDS011;40873;47.522;19.106;2023-03-29T05:05:39;7.50;;;3.10;;
54977;SDS011;40873;47.522;19.106;2023-03-29T05:08:07;4.90;;;2.22;;
54977;SDS011;40873;47.522;19.106;2023-03-29T05:10:35;4.15;;;2.47;;
54977;SDS011;40873;47.522;19.106;2023-03-29T05:13:02;3.72;;;2.03;;
54977;SDS011;40873;47.522;19.106;2023-03-29T05:15:29;4.07;;;2.22;;
54977;SDS011;40873;47.522;19.106;2023-03-29T05:17:57;5.47;;;2.72;;
54977;SDS011;40873;47.522;19.106;2023-03-29T05:20:24;10.85;;;2.95;;
54977;SDS011;40873;47.522;19.106;2023-03-29T05:22:51;7.90;;;2.10;;
54977;SDS011;40873;47.522;19.106;2023-03-29T05:25:19;10.10;;;3.30;;
54977;SDS011;40873;47.522;19.106;2023-03-29T05:27:46;6.82;;;2.55;;
54977;SDS011;40873;47.522;19.106;2023-03-29T05:30:13;4.97;;;3.17;;
54977;SDS011;40873;47.522;19.106;2023-03-29T05:32:41;6.55;;;3.17;;
54977;SDS011;40873;47.522;19.106;2023-03-29T05:35:08;3.72;;;2.30;;
54977;SDS011;40873;47.522;19.106;2023-03-29T05:37:37;7.25;;;3.17;;
54977;SDS011;40873;47.522;19.106;2023-03-29T05:40:04;6.90;;;2.70;;
54977;SDS011;40873;47.522;19.106;2023-03-29T05:42:34;3.45;;;1.90;;
54977;SDS011;40873;47.522;19.106;2023-03-29T05:45:06;5.57;;;2.22;;
54977;SDS011;40873;47.522;19.106;2023-03-29T05:47:33;7.60;;;2.83;;
54977;SDS011;40873;47.522;19.106;2023-03-29T05:50:01;6.88;;;2.67;;
54977;SDS011;40873;47.522;19.106;2023-03-29T05:52:28;8.20;;;2.25;;
54977;SDS011;40873;47.522;19.106;2023-03-29T05:54:55;3.92;;;1.92;;
54977;SDS011;40873;47.522;19.106;2023-03-29T05:57:22;4.00;;;2.13;;
54977;SDS011;40873;47.522;19.106;2023-03-29T05:59:49;11.18;;;2.75;;
54977;SDS011;40873;47.522;19.106;2023-03-29T06:02:16;6.80;;;2.63;;
54977;SDS011;40873;47.522;19.106;2023-03-29T06:04:44;3.78;;;2.20;;
54977;SDS011;40873;47.522;19.106;2023-03-29T06:07:11;3.15;;;1.80;;
54977;SDS011;40873;47.522;19.106;2023-03-29T06:09:38;4.65;;;2.90;;
54977;SDS011;40873;47.522;19.106;2023-03-29T06:12:05;4.30;;;2.17;;
54977;SDS011;40873;47.522;19.106;2023-03-29T06:14:33;5.15;;;2.30;;
54977;SDS011;40873;47.522;19.106;2023-03-29T06:17:02;5.70;;;2.20;;
54977;SDS011;40873;47.522;19.106;2023-03-29T06:19:29;6.35;;;2.72;;
54977;SDS011;40873;47.522;19.106;2023-03-29T06:21:56;3.88;;;2.25;;
54977;SDS011;40873;47.522;19.106;2023-03-29T06:24:26;4.10;;;1.98;;
54977;SDS011;40873;47.522;19.106;2023-03-29T06:26:53;4.20;;;2.33;;
54977;SDS011;40873;47.522;19.106;2023-03-29T06:29:20;6.65;;;2.53;;
54977;SDS011;40873;47.522;19.106;2023-03-29T06:31:47;3.20;;;1.98;;
54977;SDS011;40873;47.522;19.106;2023-03-29T06:34:14;4.78;;;2.50;;
54977;SDS011;40873;47.522;19.106;2023-03-29T06:36:43;4.65;;;2.17;;
54977;SDS011;40873;47.522;19.106;2023-03-29T06:39:11;4.22;;;2.08;;
54977;SDS011;40873;47.522;19.106;2023-03-29T06:41:38;3.83;;;1.85;;
54977;SDS011;40873;47.522;19.106;2023-03-29T06:44:05;4.20;;;1.60;;
54977;SDS011;40873;47.522;19.106;2023-03-29T06:46:32;4.55;;;2.60;;
54977;SDS011;40873;47.522;19.106;2023-03-29T06:48:59;7.45;;;2.15;;
54977;SDS011;40873;47.522;19.106;2023-03-29T06:51:27;10.15;;;2.33;;
54977;SDS011;40873;47.522;19.106;2023-03-29T06:53:54;5.75;;;2.88;;
54977;SDS011;40873;47.522;19.106;2023-03-29T06:56:21;3.80;;;2.20;;
54977;SDS011;40873;47.522;19.106;2023-03-29T06:58:49;5.10;;;2.45;;
54977;SDS011;40873;47.522;19.106;2023-03-29T07:01:17;3.95;;;1.90;;
54977;SDS011;40873;47.522;19.106;2023-03-29T07:03:43;3.60;;;1.55;;
54977;SDS011;40873;47.522;19.106;2023-03-29T07:06:12;4.97;;;1.73;;
54977;SDS011;40873;47.522;19.106;2023-03-29T07:08:40;2.72;;;1.77;;
54977;SDS011;40873;47.522;19.106;2023-03-29T07:11:11;6.93;;;2.58;;
54977;SDS011;40873;47.522;19.106;2023-03-29T07:13:39;4.80;;;2.60;;
54977;SDS011;40873;47.522;19.106;2023-03-29T07:16:08;5.68;;;2.20;;
54977;SDS011;40873;47.522;19.106;2023-03-29T07:18:40;5.47;;;2.22;;
54977;SDS011;40873;47.522;19.106;2023-03-29T07:21:09;3.15;;;2.10;;
54977;SDS011;40873;47.522;19.106;2023-03-29T07:23:37;4.25;;;2.22;;
54977;SDS011;40873;47.522;19.106;2023-03-29T07:26:05;5.10;;;1.80;;
54977;SDS011;40873;47.522;19.106;2023-03-29T07:28:33;7.38;;;2.63;;
54977;SDS011;40873;47.522;19.106;2023-03-29T07:31:06;4.82;;;2.33;;
54977;SDS011;40873;47.522;19.106;2023-03-29T07:36:05;3.92;;;1.65;;
54977;SDS011;40873;47.522;19.106;2023-03-29T07:38:32;5.95;;;1.67;;
54977;SDS011;40873;47.522;19.106;2023-03-29T07:41:01;7.10;;;2.92;;
54977;SDS011;40873;47.522;19.106;2023-03-29T07:43:30;5.20;;;1.70;;
54977;SDS011;40873;47.522;19.106;2023-03-29T07:46:01;5.10;;;1.65;;
54977;SDS011;40873;47.522;19.106;2023-03-29T07:48:31;3.28;;;1.95;;
54977;SDS011;40873;47.522;19.106;2023-03-29T07:50:59;7.35;;;1.90;;
54977;SDS011;40873;47.522;19.106;2023-03-29T07:53:27;6.70;;;1.85;;
54977;SDS011;40873;47.522;19.106;2023-03-29T07:55:55;4.28;;;1.75;;
54977;SDS011;40873;47.522;19.106;2023-03-29T07:58:22;5.03;;;2.05;;
54977;SDS011;40873;47.522;19.106;2023-03-29T08:00:49;3.88;;;2.10;;
54977;SDS011;40873;47.522;19.106;2023-03-29T08:03:16;2.65;;;1.30;;
54977;SDS011;40873;47.522;19.106;2023-03-29T08:05:43;5.35;;;2.05;;
54977;SDS011;40873;47.522;19.106;2023-03-29T08:08:10;3.88;;;1.20;;
54977;SDS011;40873;47.522;19.106;2023-03-29T08:10:39;5.18;;;1.98;;
54977;SDS011;40873;47.522;19.106;2023-03-29T08:13:08;2.85;;;1.65;;
54977;SDS011;40873;47.522;19.106;2023-03-29T08:15:36;5.13;;;1.80;;
54977;SDS011;40873;47.522;19.106;2023-03-29T08:18:05;3.20;;;1.88;;
54977;SDS011;40873;47.522;19.106;2023-03-29T08:20:33;3.45;;;1.60;;
54977;SDS011;40873;47.522;19.106;2023-03-29T08:23:00;4.03;;;1.92;;
54977;SDS011;40873;47.522;19.106;2023-03-29T08:25:28;2.50;;;1.20;;
54977;SDS011;40873;47.522;19.106;2023-03-29T08:27:55;2.47;;;1.63;;
54977;SDS011;40873;47.522;19.106;2023-03-29T08:30:22;1.77;;;1.17;;
54977;SDS011;40873;47.522;19.106;2023-03-29T08:32:49;2.05;;;0.98;;
54977;SDS011;40873;47.522;19.106;2023-03-29T08:35:20;2.30;;;0.65;;
54977;SDS011;40873;47.522;19.106;2023-03-29T08:37:48;2.38;;;0.90;;
54977;SDS011;40873;47.522;19.106;2023-03-29T08:40:16;1.80;;;0.90;;
54977;SDS011;40873;47.522;19.106;2023-03-29T08:51:04;3.15;;;1.10;;
54977;SDS011;40873;47.522;19.106;2023-03-29T08:53:42;4.47;;;0.90;;
54977;SDS011;40873;47.522;19.106;2023-03-29T08:56:15;2.10;;;0.90;;
54977;SDS011;40873;47.522;19.106;2023-03-29T08:58:46;3.45;;;1.00;;
54977;SDS011;40873;47.522;19.106;2023-03-29T09:01:16;2.65;;;1.35;;
54977;SDS011;40873;47.522;19.106;2023-03-29T09:03:47;4.43;;;1.45;;
54977;SDS011;40873;47.522;19.106;2023-03-29T09:06:32;2.50;;;1.23;;
54977;SDS011;40873;47.522;19.106;2023-03-29T09:08:59;4.38;;;1.38;;
54977;SDS011;40873;47.522;19.106;2023-03-29T09:11:37;3.70;;;1.67;;
54977;SDS011;40873;47.522;19.106;2023-03-29T09:17:28;6.32;;;1.60;;
54977;SDS011;40873;47.522;19.106;2023-03-29T09:28:43;2.33;;;1.05;;
54977;SDS011;40873;47.522;19.106;2023-03-29T09:31:19;3.42;;;0.93;;
54977;SDS011;40873;47.522;19.106;2023-03-29T09:33:56;3.30;;;1.27;;
54977;SDS011;40873;47.522;19.106;2023-03-29T09:36:34;2.80;;;1.23;;
54977;SDS011;40873;47.522;19.106;2023-03-29T09:39:02;4.00;;;2.08;;
54977;SDS011;40873;47.522;19.106;2023-03-29T09:41:35;3.72;;;1.20;;
54977;SDS011;40873;47.522;19.106;2023-03-29T09:44:17;3.70;;;1.73;;
54977;SDS011;40873;47.522;19.106;2023-03-29T09:46:57;2.75;;;1.40;;
54977;SDS011;40873;47.522;19.106;2023-03-29T09:49:33;4.03;;;1.50;;
54977;SDS011;40873;47.522;19.106;2023-03-29T09:52:05;5.28;;;1.83;;
54977;SDS011;40873;47.522;19.106;2023-03-29T09:54:37;4.28;;;1.67;;
54977;SDS011;40873;47.522;19.106;2023-03-29T09:57:04;4.95;;;1.85;;
54977;SDS011;40873;47.522;19.106;2023-03-29T09:59:32;7.43;;;1.50;;
54977;SDS011;40873;47.522;19.106;2023-03-29T10:02:06;3.72;;;1.38;;
54977;SDS011;40873;47.522;19.106;2023-03-29T10:04:35;2.72;;;1.55;;
54977;SDS011;40873;47.522;19.106;2023-03-29T10:07:02;4.07;;;1.50;;
54977;SDS011;40873;47.522;19.106;2023-03-29T10:09:31;4.10;;;1.83;;
54977;SDS011;40873;47.522;19.106;2023-03-29T10:11:59;3.50;;;2.10;;
54977;SDS011;40873;47.522;19.106;2023-03-29T10:14:35;4.80;;;1.73;;
54977;SDS011;40873;47.522;19.106;2023-03-29T10:17:04;5.90;;;1.73;;
54977;SDS011;40873;47.522;19.106;2023-03-29T10:19:49;2.78;;;1.50;;
54977;SDS011;40873;47.522;19.106;2023-03-29T10:22:18;3.83;;;1.73;;
54977;SDS011;40873;47.522;19.106;2023-03-29T10:24:49;2.95;;;1.27;;
54977;SDS011;40873;47.522;19.106;2023-03-29T10:27:21;2.67;;;1.23;;
54977;SDS011;40873;47.522;19.106;2023-03-29T10:29:51;3.03;;;1.63;;
54977;SDS011;40873;47.522;19.106;2023-03-29T10:32:53;2.17;;;1.40;;
54977;SDS011;40873;47.522;19.106;2023-03-29T10:35:28;5.38;;;1.88;;
54977;SDS011;40873;47.522;19.106;2023-03-29T10:37:58;3.00;;;1.75;;
54977;SDS011;40873;47.522;19.106;2023-03-29T10:40:31;2.22;;;1.40;;
54977;SDS011;40873;47.522;19.106;2023-03-29T10:43:21;2.80;;;1.35;;
54977;SDS011;40873;47.522;19.106;2023-03-29T10:45:52;4.28;;;1.58;;
54977;SDS011;40873;47.522;19.106;2023-03-29T10:48:27;4.97;;;1.67;;
54977;SDS011;40873;47.522;19.106;2023-03-29T10:50:56;3.28;;;1.33;;
54977;SDS011;40873;47.522;19.106;2023-03-29T10:53:35;1.85;;;1.15;;
54977;SDS011;40873;47.522;19.106;2023-03-29T10:56:16;3.80;;;1.90;;
54977;SDS011;40873;47.522;19.106;2023-03-29T11:12:33;5.45;;;1.27;;
54977;SDS011;40873;47.522;19.106;2023-03-29T11:43:18;4.95;;;1.50;;
54977;SDS011;40873;47.522;19.106;2023-03-29T11:46:00;3.90;;;1.55;;
54977;SDS011;40873;47.522;19.106;2023-03-29T11:48:35;4.90;;;1.63;;
54977;SDS011;40873;47.522;19.106;2023-03-29T11:56:11;3.70;;;1.98;;
54977;SDS011;40873;47.522;19.106;2023-03-29T11:58:43;5.18;;;1.60;;
54977;SDS011;40873;47.522;19.106;2023-03-29T12:01:17;2.50;;;1.40;;
54977;SDS011;40873;47.522;19.106;2023-03-29T12:04:14;4.78;;;1.75;;
54977;SDS011;40873;47.522;19.106;2023-03-29T12:06:51;2.47;;;1.38;;
54977;SDS011;40873;47.522;19.106;2023-03-29T12:12:08;3.00;;;1.58;;
54977;SDS011;40873;47.522;19.106;2023-03-29T12:14:43;3.13;;;1.33;;
54977;SDS011;40873;47.522;19.106;2023-03-29T12:17:19;2.70;;;1.38;;
54977;SDS011;40873;47.522;19.106;2023-03-29T12:20:02;2.35;;;1.20;;
54977;SDS011;40873;47.522;19.106;2023-03-29T12:22:36;3.17;;;1.58;;
54977;SDS011;40873;47.522;19.106;2023-03-29T12:25:03;2.30;;;1.33;;
54977;SDS011;40873;47.522;19.106;2023-03-29T12:27:51;6.97;;;1.55;;
54977;SDS011;40873;47.522;19.106;2023-03-29T12:30:23;3.05;;;1.48;;
54977;SDS011;40873;47.522;19.106;2023-03-29T12:33:17;3.60;;;1.55;;
54977;SDS011;40873;47.522;19.106;2023-03-29T12:38:33;5.40;;;1.52;;
54977;SDS011;40873;47.522;19.106;2023-03-29T12:41:01;3.00;;;1.40;;
54977;SDS011;40873;47.522;19.106;2023-03-29T12:43:38;4.78;;;1.63;;
54977;SDS011;40873;47.522;19.106;2023-03-29T12:48:45;4.00;;;1.98;;
54977;SDS011;40873;47.522;19.106;2023-03-29T12:51:17;2.17;;;1.30;;
54977;SDS011;40873;47.522;19.106;2023-03-29T12:53:48;4.63;;;1.95;;
54977;SDS011;40873;47.522;19.106;2023-03-29T12:56:19;4.93;;;1.77;;
54977;SDS011;40873;47.522;19.106;2023-03-29T13:01:51;2.67;;;1.55;;
54977;SDS011;40873;47.522;19.106;2023-03-29T13:07:30;3.42;;;1.58;;
54977;SDS011;40873;47.522;19.106;2023-03-29T13:10:00;3.05;;;1.80;;
54977;SDS011;40873;47.522;19.106;2023-03-29T13:20:45;3.33;;;2.03;;
54977;SDS011;40873;47.522;19.106;2023-03-29T13:23:21;6.18;;;2.50;;
54977;SDS011;40873;47.522;19.106;2023-03-29T13:31:36;4.88;;;1.98;;
54977;SDS011;40873;47.522;19.106;2023-03-29T13:34:10;2.45;;;1.52;;
54977;SDS011;40873;47.522;19.106;2023-03-29T13:43:18;3.47;;;1.83;;
54977;SDS011;40873;47.522;19.106;2023-03-29T13:53:46;4.53;;;2.55;;
54977;SDS011;40873;47.522;19.106;2023-03-29T13:56:20;5.38;;;2.40;;
54977;SDS011;40873;47.522;19.106;2023-03-29T13:58:53;8.38;;;2.40;;
54977;SDS011;40873;47.522;19.106;2023-03-29T14:01:38;3.33;;;2.10;;
54977;SDS011;40873;47.522;19.106;2023-03-29T14:04:10;4.22;;;2.65;;
54977;SDS011;40873;47.522;19.106;2023-03-29T14:06:44;3.42;;;1.90;;
54977;SDS011;40873;47.522;19.106;2023-03-29T14:09:18;4.57;;;2.13;;
54977;SDS011;40873;47.522;19.106;2023-03-29T14:11:53;4.10;;;2.15;;
54977;SDS011;40873;47.522;19.106;2023-03-29T14:14:24;7.70;;;2.35;;
54977;SDS011;40873;47.522;19.106;2023-03-29T14:16:54;4.53;;;1.92;;
54977;SDS011;40873;47.522;19.106;2023-03-29T14:19:35;7.20;;;2.15;;
54977;SDS011;40873;47.522;19.106;2023-03-29T14:22:07;3.33;;;1.92;;
54977;SDS011;40873;47.522;19.106;2023-03-29T14:24:37;5.07;;;2.47;;
54977;SDS011;40873;47.522;19.106;2023-03-29T14:27:06;6.05;;;2.22;;
54977;SDS011;40873;47.522;19.106;2023-03-29T14:29:35;4.55;;;2.70;;
54977;SDS011;40873;47.522;19.106;2023-03-29T14:32:12;4.68;;;1.92;;
54977;SDS011;40873;47.522;19.106;2023-03-29T14:34:48;3.88;;;1.70;;
54977;SDS011;40873;47.522;19.106;2023-03-29T14:37:17;5.22;;;1.85;;
54977;SDS011;40873;47.522;19.106;2023-03-29T14:39:48;5.85;;;2.00;;
54977;SDS011;40873;47.522;19.106;2023-03-29T14:42:17;8.35;;;2.78;;
54977;SDS011;40873;47.522;19.106;2023-03-29T14:44:48;4.63;;;1.90;;
54977;SDS011;40873;47.522;19.106;2023-03-29T14:47:22;3.80;;;2.05;;
54977;SDS011;40873;47.522;19.106;2023-03-29T14:49:53;3.92;;;1.95;;
54977;SDS011;40873;47.522;19.106;2023-03-29T14:52:22;4.45;;;2.25;;
54977;SDS011;40873;47.522;19.106;2023-03-29T14:54:52;7.90;;;2.80;;
54977;SDS011;40873;47.522;19.106;2023-03-29T14:57:22;6.47;;;2.60;;
54977;SDS011;40873;47.522;19.106;2023-03-29T14:59:53;4.60;;;2.70;;
54977;SDS011;40873;47.522;19.106;2023-03-29T15:02:27;5.07;;;2.70;;
54977;SDS011;40873;47.522;19.106;2023-03-29T15:05:02;10.45;;;3.25;;
54977;SDS011;40873;47.522;19.106;2023-03-29T15:07:31;6.40;;;3.58;;
54977;SDS011;40873;47.522;19.106;2023-03-29T15:10:01;5.03;;;2.58;;
54977;SDS011;40873;47.522;19.106;2023-03-29T15:12:31;5.13;;;2.65;;
54977;SDS011;40873;47.522;19.106;2023-03-29T15:14:59;7.07;;;2.53;;
54977;SDS011;40873;47.522;19.106;2023-03-29T15:17:32;4.00;;;2.22;;
54977;SDS011;40873;47.522;19.106;2023-03-29T15:20:18;8.88;;;3.08;;
54977;SDS011;40873;47.522;19.106;2023-03-29T15:25:33;8.32;;;2.00;;
54977;SDS011;40873;47.522;19.106;2023-03-29T15:28:02;7.13;;;3.05;;
54977;SDS011;40873;47.522;19.106;2023-03-29T15:30:31;8.23;;;2.20;;
54977;SDS011;40873;47.522;19.106;2023-03-29T15:35:48;4.17;;;2.93;;
54977;SDS011;40873;47.522;19.106;2023-03-29T15:38:16;4.53;;;2.58;;
54977;SDS011;40873;47.522;19.106;2023-03-29T15:40:49;5.85;;;2.60;;
54977;SDS011;40873;47.522;19.106;2023-03-29T15:43:16;5.75;;;2.53;;
54977;SDS011;40873;47.522;19.106;2023-03-29T15:45:45;5.65;;;1.85;;
54977;SDS011;40873;47.522;19.106;2023-03-29T15:48:14;6.03;;;2.55;;
54977;SDS011;40873;47.522;19.106;2023-03-29T15:50:43;5.32;;;2.67;;
54977;SDS011;40873;47.522;19.106;2023-03-29T15:53:10;2.88;;;1.77;;
54977;SDS011;40873;47.522;19.106;2023-03-29T15:55:42;5.38;;;2.40;;
54977;SDS011;40873;47.522;19.106;2023-03-29T15:58:12;5.30;;;2.05;;
54977;SDS011;40873;47.522;19.106;2023-03-29T16:00:42;5.72;;;2.33;;
54977;SDS011;40873;47.522;19.106;2023-03-29T16:03:13;5.57;;;2.45;;
54977;SDS011;40873;47.522;19.106;2023-03-29T16:05:42;4.30;;;1.58;;
54977;SDS011;40873;47.522;19.106;2023-03-29T16:08:11;5.50;;;2.67;;
54977;SDS011;40873;47.522;19.106;2023-03-29T16:10:39;5.43;;;2.25;;
54977;SDS011;40873;47.522;19.106;2023-03-29T16:13:08;5.05;;;2.42;;
54977;SDS011;40873;47.522;19.106;2023-03-29T16:15:37;6.65;;;2.20;;
54977;SDS011;40873;47.522;19.106;2023-03-29T16:18:06;7.05;;;2.50;;
54977;SDS011;40873;47.522;19.106;2023-03-29T16:20:33;4.15;;;2.08;;
54977;SDS011;40873;47.522;19.106;2023-03-29T16:23:00;7.60;;;2.30;;
54977;SDS011;40873;47.522;19.106;2023-03-29T16:25:28;3.67;;;2.03;;
54977;SDS011;40873;47.522;19.106;2023-03-29T16:27:55;5.18;;;2.35;;
54977;SDS011;40873;47.522;19.106;2023-03-29T16:30:22;7.35;;;2.28;;
54977;SDS011;40873;47.522;19.106;2023-03-29T16:32:50;4.65;;;2.47;;
54977;SDS011;40873;47.522;19.106;2023-03-29T16:35:26;3.17;;;1.92;;
54977;SDS011;40873;47.522;19.106;2023-03-29T16:37:55;8.88;;;2.53;;
54977;SDS011;40873;47.522;19.106;2023-03-29T16:40:22;9.13;;;2.88;;
54977;SDS011;40873;47.522;19.106;2023-03-29T16:42:50;4.80;;;2.10;;
54977;SDS011;40873;47.522;19.106;2023-03-29T16:45:17;6.38;;;2.63;;
54977;SDS011;40873;47.522;19.106;2023-03-29T16:47:45;5.25;;;2.10;;
54977;SDS011;40873;47.522;19.106;2023-03-29T16:50:13;5.18;;;2.60;;
54977;SDS011;40873;47.522;19.106;2023-03-29T16:52:41;7.18;;;2.75;;
54977;SDS011;40873;47.522;19.106;2023-03-29T16:55:10;5.85;;;2.83;;
54977;SDS011;40873;47.522;19.106;2023-03-29T16:57:38;4.10;;;2.38;;
54977;SDS011;40873;47.522;19.106;2023-03-29T17:00:06;5.55;;;2.47;;
54977;SDS011;40873;47.522;19.106;2023-03-29T17:02:36;7.75;;;2.92;;
54977;SDS011;40873;47.522;19.106;2023-03-29T17:05:03;6.00;;;2.67;;
54977;SDS011;40873;47.522;19.106;2023-03-29T17:07:31;5.82;;;2.47;;